sensor_id;sensor_type;location;lat;lon;timestamp;P1;durP1;ratioP1;P2;durP2;ratioP2
76733;SDS011;65660;53.288;14.666;2023-02-15T00:03:36;24.80;;;13.07;;
76733;SDS011;65660;53.288;14.666;2023-02-15T00:08:36;29.13;;;13.93;;
76733;SDS011;65660;53.288;14.666;2023-02-15T00:13:37;26.03;;;14.27;;
76733;SDS011;65660;53.288;14.666;2023-02-15T00:18:39;27.03;;;13.70;;
76733;SDS011;65660;53.288;14.666;2023-02-15T00:23:40;28.30;;;13.50;;
76733;SDS011;65660;53.288;14.666;2023-02-15T00:28:40;30.03;;;14.67;;
76733;SDS011;65660;53.288;14.666;2023-02-15T00:33:40;24.87;;;13.60;;
76733;SDS011;65660;53.288;14.666;2023-02-15T00:38:41;29.10;;;14.37;;
76733;SDS011;65660;53.288;14.666;2023-02-15T00:43:41;23.23;;;13.33;;
76733;SDS011;65660;53.288;14.666;2023-02-15T00:48:42;25.93;;;13.77;;
76733;SDS011;65660;53.288;14.666;2023-02-15T00:53:43;29.40;;;13.80;;
76733;SDS011;65660;53.288;14.666;2023-02-15T00:58:44;26.40;;;13.83;;
76733;SDS011;65660;53.288;14.666;2023-02-15T01:03:44;27.30;;;14.10;;
76733;SDS011;65660;53.288;14.666;2023-02-15T01:08:45;25.63;;;13.17;;
76733;SDS011;65660;53.288;14.666;2023-02-15T01:13:46;28.93;;;13.90;;
76733;SDS011;65660;53.288;14.666;2023-02-15T01:18:46;31.00;;;14.47;;
76733;SDS011;65660;53.288;14.666;2023-02-15T01:23:48;30.20;;;15.40;;
76733;SDS011;65660;53.288;14.666;2023-02-15T01:28:48;33.10;;;16.13;;
76733;SDS011;65660;53.288;14.666;2023-02-15T01:33:49;33.23;;;16.27;;
76733;SDS011;65660;53.288;14.666;2023-02-15T01:38:49;33.43;;;16.37;;
76733;SDS011;65660;53.288;14.666;2023-02-15T01:43:51;30.87;;;15.27;;
76733;SDS011;65660;53.288;14.666;2023-02-15T01:49:00;31.67;;;15.17;;
76733;SDS011;65660;53.288;14.666;2023-02-15T01:54:20;29.57;;;14.50;;
76733;SDS011;65660;53.288;14.666;2023-02-15T01:59:23;31.30;;;15.33;;
76733;SDS011;65660;53.288;14.666;2023-02-15T02:09:27;30.87;;;15.43;;
76733;SDS011;65660;53.288;14.666;2023-02-15T02:14:28;30.93;;;15.30;;
76733;SDS011;65660;53.288;14.666;2023-02-15T02:19:37;31.97;;;16.27;;
76733;SDS011;65660;53.288;14.666;2023-02-15T02:35:26;36.03;;;16.80;;
76733;SDS011;65660;53.288;14.666;2023-02-15T02:41:06;35.57;;;17.33;;
76733;SDS011;65660;53.288;14.666;2023-02-15T02:46:13;36.00;;;17.67;;
76733;SDS011;65660;53.288;14.666;2023-02-15T02:51:17;34.37;;;17.17;;
76733;SDS011;65660;53.288;14.666;2023-02-15T03:01:33;39.90;;;17.63;;
76733;SDS011;65660;53.288;14.666;2023-02-15T03:06:42;33.87;;;17.23;;
76733;SDS011;65660;53.288;14.666;2023-02-15T03:11:47;36.63;;;17.80;;
76733;SDS011;65660;53.288;14.666;2023-02-15T03:16:47;36.93;;;17.23;;
76733;SDS011;65660;53.288;14.666;2023-02-15T03:21:50;43.57;;;20.20;;
76733;SDS011;65660;53.288;14.666;2023-02-15T03:26:52;36.90;;;17.80;;
76733;SDS011;65660;53.288;14.666;2023-02-15T03:31:54;35.23;;;17.57;;
76733;SDS011;65660;53.288;14.666;2023-02-15T03:36:59;39.87;;;18.30;;
76733;SDS011;65660;53.288;14.666;2023-02-15T03:42:27;37.57;;;18.63;;
76733;SDS011;65660;53.288;14.666;2023-02-15T03:47:41;37.07;;;17.93;;
76733;SDS011;65660;53.288;14.666;2023-02-15T03:52:44;37.87;;;18.10;;
76733;SDS011;65660;53.288;14.666;2023-02-15T03:57:45;36.23;;;17.53;;
76733;SDS011;65660;53.288;14.666;2023-02-15T04:02:50;34.47;;;17.53;;
76733;SDS011;65660;53.288;14.666;2023-02-15T04:07:56;36.17;;;18.13;;
76733;SDS011;65660;53.288;14.666;2023-02-15T04:12:57;37.67;;;18.80;;
76733;SDS011;65660;53.288;14.666;2023-02-15T04:17:57;34.87;;;17.50;;
76733;SDS011;65660;53.288;14.666;2023-02-15T04:22:57;37.00;;;17.93;;
76733;SDS011;65660;53.288;14.666;2023-02-15T04:27:58;39.80;;;18.67;;
76733;SDS011;65660;53.288;14.666;2023-02-15T04:32:58;38.57;;;18.90;;
76733;SDS011;65660;53.288;14.666;2023-02-15T04:37:59;36.70;;;18.33;;
76733;SDS011;65660;53.288;14.666;2023-02-15T04:42:59;36.37;;;18.00;;
76733;SDS011;65660;53.288;14.666;2023-02-15T04:48:00;35.30;;;17.47;;
76733;SDS011;65660;53.288;14.666;2023-02-15T04:53:00;42.27;;;18.80;;
76733;SDS011;65660;53.288;14.666;2023-02-15T04:58:01;37.07;;;17.67;;
76733;SDS011;65660;53.288;14.666;2023-02-15T05:03:01;42.73;;;20.13;;
76733;SDS011;65660;53.288;14.666;2023-02-15T05:08:02;38.90;;;18.97;;
76733;SDS011;65660;53.288;14.666;2023-02-15T05:13:02;41.03;;;19.00;;
76733;SDS011;65660;53.288;14.666;2023-02-15T05:18:03;41.70;;;19.00;;
76733;SDS011;65660;53.288;14.666;2023-02-15T05:23:03;40.37;;;18.83;;
76733;SDS011;65660;53.288;14.666;2023-02-15T05:28:04;38.57;;;17.60;;
76733;SDS011;65660;53.288;14.666;2023-02-15T05:33:05;38.77;;;18.77;;
76733;SDS011;65660;53.288;14.666;2023-02-15T05:38:06;40.17;;;19.10;;
76733;SDS011;65660;53.288;14.666;2023-02-15T05:43:07;43.33;;;20.47;;
76733;SDS011;65660;53.288;14.666;2023-02-15T05:48:08;41.43;;;19.53;;
76733;SDS011;65660;53.288;14.666;2023-02-15T05:53:11;40.07;;;19.83;;
76733;SDS011;65660;53.288;14.666;2023-02-15T05:58:11;44.33;;;19.87;;
76733;SDS011;65660;53.288;14.666;2023-02-15T06:03:12;41.63;;;20.70;;
76733;SDS011;65660;53.288;14.666;2023-02-15T06:08:12;45.27;;;20.90;;
76733;SDS011;65660;53.288;14.666;2023-02-15T06:13:13;44.63;;;20.80;;
76733;SDS011;65660;53.288;14.666;2023-02-15T06:18:13;43.57;;;21.13;;
76733;SDS011;65660;53.288;14.666;2023-02-15T06:23:14;42.33;;;19.67;;
76733;SDS011;65660;53.288;14.666;2023-02-15T06:28:15;43.67;;;20.63;;
76733;SDS011;65660;53.288;14.666;2023-02-15T06:33:16;42.80;;;20.33;;
76733;SDS011;65660;53.288;14.666;2023-02-15T06:38:16;41.17;;;20.13;;
76733;SDS011;65660;53.288;14.666;2023-02-15T06:43:17;42.23;;;19.37;;
76733;SDS011;65660;53.288;14.666;2023-02-15T06:48:17;43.87;;;20.13;;
76733;SDS011;65660;53.288;14.666;2023-02-15T06:53:18;44.27;;;21.60;;
76733;SDS011;65660;53.288;14.666;2023-02-15T06:58:18;44.47;;;21.17;;
76733;SDS011;65660;53.288;14.666;2023-02-15T07:03:19;42.77;;;20.20;;
76733;SDS011;65660;53.288;14.666;2023-02-15T07:08:23;46.17;;;21.60;;
76733;SDS011;65660;53.288;14.666;2023-02-15T07:13:26;41.90;;;20.47;;
76733;SDS011;65660;53.288;14.666;2023-02-15T07:18:33;44.67;;;21.50;;
76733;SDS011;65660;53.288;14.666;2023-02-15T07:23:38;47.07;;;21.10;;
76733;SDS011;65660;53.288;14.666;2023-02-15T07:28:41;46.57;;;21.50;;
76733;SDS011;65660;53.288;14.666;2023-02-15T07:33:44;44.70;;;21.20;;
76733;SDS011;65660;53.288;14.666;2023-02-15T07:38:44;45.33;;;20.07;;
76733;SDS011;65660;53.288;14.666;2023-02-15T07:43:45;46.50;;;21.57;;
76733;SDS011;65660;53.288;14.666;2023-02-15T07:48:45;46.77;;;21.93;;
76733;SDS011;65660;53.288;14.666;2023-02-15T07:53:46;45.93;;;21.47;;
76733;SDS011;65660;53.288;14.666;2023-02-15T07:58:47;43.77;;;20.87;;
76733;SDS011;65660;53.288;14.666;2023-02-15T08:03:49;51.20;;;23.17;;
76733;SDS011;65660;53.288;14.666;2023-02-15T08:08:51;45.83;;;21.83;;
76733;SDS011;65660;53.288;14.666;2023-02-15T08:13:52;48.43;;;23.20;;
76733;SDS011;65660;53.288;14.666;2023-02-15T08:19:01;55.10;;;25.03;;
76733;SDS011;65660;53.288;14.666;2023-02-15T08:24:07;50.00;;;22.53;;
76733;SDS011;65660;53.288;14.666;2023-02-15T08:29:08;47.07;;;22.90;;
76733;SDS011;65660;53.288;14.666;2023-02-15T08:34:10;49.73;;;22.83;;
76733;SDS011;65660;53.288;14.666;2023-02-15T08:39:12;50.43;;;23.83;;
76733;SDS011;65660;53.288;14.666;2023-02-15T08:44:14;52.00;;;24.57;;
76733;SDS011;65660;53.288;14.666;2023-02-15T08:49:20;46.87;;;22.80;;
76733;SDS011;65660;53.288;14.666;2023-02-15T08:54:21;46.77;;;22.20;;
76733;SDS011;65660;53.288;14.666;2023-02-15T08:59:22;50.87;;;24.10;;
76733;SDS011;65660;53.288;14.666;2023-02-15T09:04:23;50.30;;;23.20;;
76733;SDS011;65660;53.288;14.666;2023-02-15T09:09:23;46.03;;;22.07;;
76733;SDS011;65660;53.288;14.666;2023-02-15T09:14:24;49.90;;;24.30;;
76733;SDS011;65660;53.288;14.666;2023-02-15T09:19:25;48.53;;;23.17;;
76733;SDS011;65660;53.288;14.666;2023-02-15T09:24:26;50.93;;;23.80;;
76733;SDS011;65660;53.288;14.666;2023-02-15T09:29:26;51.67;;;24.23;;
76733;SDS011;65660;53.288;14.666;2023-02-15T09:34:27;49.73;;;24.70;;
76733;SDS011;65660;53.288;14.666;2023-02-15T09:39:27;55.57;;;24.87;;
76733;SDS011;65660;53.288;14.666;2023-02-15T09:49:49;50.80;;;24.27;;
76733;SDS011;65660;53.288;14.666;2023-02-15T10:00:31;55.63;;;27.10;;
76733;SDS011;65660;53.288;14.666;2023-02-15T10:26:50;58.13;;;26.97;;
76733;SDS011;65660;53.288;14.666;2023-02-15T10:31:51;55.87;;;26.80;;
76733;SDS011;65660;53.288;14.666;2023-02-15T11:09:07;55.43;;;27.60;;
76733;SDS011;65660;53.288;14.666;2023-02-15T11:19:37;54.40;;;26.57;;
76733;SDS011;65660;53.288;14.666;2023-02-15T11:24:48;50.57;;;26.33;;
76733;SDS011;65660;53.288;14.666;2023-02-15T11:35:03;53.60;;;26.53;;
76733;SDS011;65660;53.288;14.666;2023-02-15T11:40:46;55.50;;;26.17;;
76733;SDS011;65660;53.288;14.666;2023-02-15T11:45:50;49.63;;;25.73;;
76733;SDS011;65660;53.288;14.666;2023-02-15T11:50:51;51.90;;;25.97;;
76733;SDS011;65660;53.288;14.666;2023-02-15T11:55:51;53.83;;;25.43;;
76733;SDS011;65660;53.288;14.666;2023-02-15T12:00:54;50.07;;;25.53;;
76733;SDS011;65660;53.288;14.666;2023-02-15T12:06:00;51.27;;;25.30;;
76733;SDS011;65660;53.288;14.666;2023-02-15T12:11:05;47.90;;;24.43;;
76733;SDS011;65660;53.288;14.666;2023-02-15T12:16:09;46.83;;;23.77;;
76733;SDS011;65660;53.288;14.666;2023-02-15T12:21:12;51.20;;;26.47;;
76733;SDS011;65660;53.288;14.666;2023-02-15T12:26:23;52.47;;;26.47;;
76733;SDS011;65660;53.288;14.666;2023-02-15T12:31:30;53.77;;;27.10;;
76733;SDS011;65660;53.288;14.666;2023-02-15T12:36:39;50.17;;;25.57;;
76733;SDS011;65660;53.288;14.666;2023-02-15T12:41:45;54.80;;;25.63;;
76733;SDS011;65660;53.288;14.666;2023-02-15T13:07:50;54.10;;;24.93;;
76733;SDS011;65660;53.288;14.666;2023-02-15T13:12:54;50.53;;;25.37;;
76733;SDS011;65660;53.288;14.666;2023-02-15T13:17:57;51.40;;;25.17;;
76733;SDS011;65660;53.288;14.666;2023-02-15T13:22:59;50.63;;;25.83;;
76733;SDS011;65660;53.288;14.666;2023-02-15T13:28:02;52.67;;;26.77;;
76733;SDS011;65660;53.288;14.666;2023-02-15T13:33:04;49.63;;;25.70;;
76733;SDS011;65660;53.288;14.666;2023-02-15T13:43:52;51.00;;;25.93;;
76733;SDS011;65660;53.288;14.666;2023-02-15T13:59:59;56.23;;;28.17;;
76733;SDS011;65660;53.288;14.666;2023-02-15T14:10:45;51.40;;;26.67;;
76733;SDS011;65660;53.288;14.666;2023-02-15T14:31:43;49.93;;;25.27;;
76733;SDS011;65660;53.288;14.666;2023-02-15T14:36:46;52.93;;;26.13;;
76733;SDS011;65660;53.288;14.666;2023-02-15T14:41:48;49.57;;;26.00;;
76733;SDS011;65660;53.288;14.666;2023-02-15T14:46:55;50.93;;;25.43;;
76733;SDS011;65660;53.288;14.666;2023-02-15T14:52:04;50.43;;;26.03;;
76733;SDS011;65660;53.288;14.666;2023-02-15T15:07:22;49.07;;;24.50;;
76733;SDS011;65660;53.288;14.666;2023-02-15T15:22:32;52.10;;;26.50;;
76733;SDS011;65660;53.288;14.666;2023-02-15T15:48:49;53.53;;;25.63;;
76733;SDS011;65660;53.288;14.666;2023-02-15T15:53:51;50.90;;;25.30;;
76733;SDS011;65660;53.288;14.666;2023-02-15T15:59:04;52.30;;;25.80;;
76733;SDS011;65660;53.288;14.666;2023-02-15T16:04:10;47.93;;;24.03;;
76733;SDS011;65660;53.288;14.666;2023-02-15T16:14:25;45.10;;;23.33;;
76733;SDS011;65660;53.288;14.666;2023-02-15T16:19:30;58.53;;;27.03;;
76733;SDS011;65660;53.288;14.666;2023-02-15T16:35:28;52.23;;;25.00;;
76733;SDS011;65660;53.288;14.666;2023-02-15T16:40:33;46.47;;;23.83;;
76733;SDS011;65660;53.288;14.666;2023-02-15T16:45:46;50.13;;;24.20;;
76733;SDS011;65660;53.288;14.666;2023-02-15T16:50:48;51.73;;;26.00;;
76733;SDS011;65660;53.288;14.666;2023-02-15T16:55:51;51.37;;;24.20;;
76733;SDS011;65660;53.288;14.666;2023-02-15T17:00:59;56.27;;;25.93;;
76733;SDS011;65660;53.288;14.666;2023-02-15T17:06:02;52.50;;;24.97;;
76733;SDS011;65660;53.288;14.666;2023-02-15T17:16:25;61.10;;;28.53;;
76733;SDS011;65660;53.288;14.666;2023-02-15T17:21:30;72.40;;;31.00;;
76733;SDS011;65660;53.288;14.666;2023-02-15T17:26:33;66.97;;;30.10;;
76733;SDS011;65660;53.288;14.666;2023-02-15T17:31:34;66.30;;;29.93;;
76733;SDS011;65660;53.288;14.666;2023-02-15T17:36:35;78.27;;;31.83;;
76733;SDS011;65660;53.288;14.666;2023-02-15T17:41:59;85.17;;;36.57;;
76733;SDS011;65660;53.288;14.666;2023-02-15T17:46:59;95.07;;;37.40;;
76733;SDS011;65660;53.288;14.666;2023-02-15T17:52:00;69.13;;;32.10;;
76733;SDS011;65660;53.288;14.666;2023-02-15T17:57:01;61.90;;;28.60;;
76733;SDS011;65660;53.288;14.666;2023-02-15T18:02:07;74.43;;;31.77;;
76733;SDS011;65660;53.288;14.666;2023-02-15T18:07:09;73.20;;;32.80;;
76733;SDS011;65660;53.288;14.666;2023-02-15T18:12:19;71.93;;;32.90;;
76733;SDS011;65660;53.288;14.666;2023-02-15T18:17:26;68.53;;;31.27;;
76733;SDS011;65660;53.288;14.666;2023-02-15T18:22:30;57.77;;;26.13;;
76733;SDS011;65660;53.288;14.666;2023-02-15T18:27:31;57.13;;;25.97;;
76733;SDS011;65660;53.288;14.666;2023-02-15T18:32:32;53.50;;;24.73;;
76733;SDS011;65660;53.288;14.666;2023-02-15T18:37:35;50.10;;;22.63;;
76733;SDS011;65660;53.288;14.666;2023-02-15T18:42:35;54.30;;;24.80;;
76733;SDS011;65660;53.288;14.666;2023-02-15T18:47:36;51.93;;;25.50;;
76733;SDS011;65660;53.288;14.666;2023-02-15T18:52:36;61.93;;;26.50;;
76733;SDS011;65660;53.288;14.666;2023-02-15T18:57:37;67.93;;;28.47;;
76733;SDS011;65660;53.288;14.666;2023-02-15T19:02:38;59.50;;;28.03;;
76733;SDS011;65660;53.288;14.666;2023-02-15T19:07:39;58.00;;;26.80;;
76733;SDS011;65660;53.288;14.666;2023-02-15T19:12:40;58.07;;;25.23;;
76733;SDS011;65660;53.288;14.666;2023-02-15T19:17:40;53.87;;;25.17;;
76733;SDS011;65660;53.288;14.666;2023-02-15T19:22:41;53.30;;;24.37;;
76733;SDS011;65660;53.288;14.666;2023-02-15T19:27:41;55.37;;;25.87;;
76733;SDS011;65660;53.288;14.666;2023-02-15T19:32:43;52.00;;;24.67;;
76733;SDS011;65660;53.288;14.666;2023-02-15T19:37:44;54.90;;;25.93;;
76733;SDS011;65660;53.288;14.666;2023-02-15T19:42:47;49.20;;;23.70;;
76733;SDS011;65660;53.288;14.666;2023-02-15T19:47:48;55.83;;;25.50;;
76733;SDS011;65660;53.288;14.666;2023-02-15T19:52:50;58.17;;;27.87;;
76733;SDS011;65660;53.288;14.666;2023-02-15T19:57:52;55.73;;;27.50;;
76733;SDS011;65660;53.288;14.666;2023-02-15T20:02:53;58.73;;;27.90;;
76733;SDS011;65660;53.288;14.666;2023-02-15T20:07:54;56.37;;;26.60;;
76733;SDS011;65660;53.288;14.666;2023-02-15T20:12:55;64.00;;;28.93;;
76733;SDS011;65660;53.288;14.666;2023-02-15T20:17:57;74.50;;;32.50;;
76733;SDS011;65660;53.288;14.666;2023-02-15T20:22:58;70.93;;;32.80;;
76733;SDS011;65660;53.288;14.666;2023-02-15T20:27:59;75.67;;;32.73;;
76733;SDS011;65660;53.288;14.666;2023-02-15T20:33:00;76.70;;;33.07;;
76733;SDS011;65660;53.288;14.666;2023-02-15T20:38:01;85.37;;;36.13;;
76733;SDS011;65660;53.288;14.666;2023-02-15T20:43:01;78.07;;;35.73;;
76733;SDS011;65660;53.288;14.666;2023-02-15T20:48:02;83.63;;;35.23;;
76733;SDS011;65660;53.288;14.666;2023-02-15T20:53:04;89.87;;;38.03;;
76733;SDS011;65660;53.288;14.666;2023-02-15T20:58:29;93.43;;;36.90;;
76733;SDS011;65660;53.288;14.666;2023-02-15T21:03:29;82.50;;;35.10;;
76733;SDS011;65660;53.288;14.666;2023-02-15T21:08:30;77.03;;;33.90;;
76733;SDS011;65660;53.288;14.666;2023-02-15T21:13:32;83.17;;;35.03;;
76733;SDS011;65660;53.288;14.666;2023-02-15T21:18:33;68.93;;;31.20;;
76733;SDS011;65660;53.288;14.666;2023-02-15T21:23:34;77.70;;;32.20;;
76733;SDS011;65660;53.288;14.666;2023-02-15T21:28:38;82.67;;;34.43;;
76733;SDS011;65660;53.288;14.666;2023-02-15T21:33:39;92.77;;;35.87;;
76733;SDS011;65660;53.288;14.666;2023-02-15T21:38:39;93.77;;;39.23;;
76733;SDS011;65660;53.288;14.666;2023-02-15T21:43:40;99.33;;;40.03;;
76733;SDS011;65660;53.288;14.666;2023-02-15T21:48:40;84.43;;;37.50;;
76733;SDS011;65660;53.288;14.666;2023-02-15T21:53:42;93.03;;;37.50;;
76733;SDS011;65660;53.288;14.666;2023-02-15T21:58:43;103.47;;;40.73;;
76733;SDS011;65660;53.288;14.666;2023-02-15T22:03:44;83.67;;;36.57;;
76733;SDS011;65660;53.288;14.666;2023-02-15T22:08:44;92.70;;;37.87;;
76733;SDS011;65660;53.288;14.666;2023-02-15T22:13:45;94.40;;;38.40;;
76733;SDS011;65660;53.288;14.666;2023-02-15T22:18:47;101.17;;;40.60;;
76733;SDS011;65660;53.288;14.666;2023-02-15T22:23:48;103.60;;;42.07;;
76733;SDS011;65660;53.288;14.666;2023-02-15T22:28:48;87.53;;;37.10;;
76733;SDS011;65660;53.288;14.666;2023-02-15T22:33:49;81.07;;;35.93;;
76733;SDS011;65660;53.288;14.666;2023-02-15T22:38:50;96.27;;;37.47;;
76733;SDS011;65660;53.288;14.666;2023-02-15T22:43:50;105.13;;;39.70;;
76733;SDS011;65660;53.288;14.666;2023-02-15T22:48:51;92.20;;;38.00;;
76733;SDS011;65660;53.288;14.666;2023-02-15T22:53:52;101.37;;;38.87;;
76733;SDS011;65660;53.288;14.666;2023-02-15T22:58:54;92.00;;;37.20;;
76733;SDS011;65660;53.288;14.666;2023-02-15T23:04:00;97.90;;;38.97;;
76733;SDS011;65660;53.288;14.666;2023-02-15T23:09:01;101.83;;;38.53;;
76733;SDS011;65660;53.288;14.666;2023-02-15T23:14:01;100.30;;;36.23;;
76733;SDS011;65660;53.288;14.666;2023-02-15T23:19:02;128.60;;;42.77;;
76733;SDS011;65660;53.288;14.666;2023-02-15T23:24:12;160.70;;;46.10;;
76733;SDS011;65660;53.288;14.666;2023-02-15T23:29:19;127.43;;;45.93;;
76733;SDS011;65660;53.288;14.666;2023-02-15T23:34:26;120.17;;;41.43;;
76733;SDS011;65660;53.288;14.666;2023-02-15T23:39:27;121.27;;;42.27;;
76733;SDS011;65660;53.288;14.666;2023-02-15T23:44:28;126.87;;;40.37;;
76733;SDS011;65660;53.288;14.666;2023-02-15T23:55:36;64.73;;;29.03;;
